createdAt,value
2023-01-13T05:17:42.089Z,100632.03
2023-01-13T05:20:46.123Z,100633.78
2023-01-13T05:24:07.271Z,100621.59
2023-01-13T05:27:10.166Z,100633.75
2023-01-13T05:30:13.157Z,100641.63
2023-01-13T05:33:18.570Z,100645.09
2023-01-13T05:36:21.188Z,100645.09
2023-01-13T05:39:24.221Z,100640.72
2023-01-13T05:42:45.408Z,100647.69
2023-01-13T05:45:52.356Z,100646.81
2023-01-13T05:48:54.843Z,100633.78
2023-01-13T05:51:57.700Z,100637.25
2023-01-13T05:55:00.223Z,100637.25
2023-01-13T05:58:03.193Z,100627.69
2023-01-13T06:01:08.339Z,100630.28
2023-01-13T06:04:11.403Z,100637.22
2023-01-13T06:07:14.059Z,100638.91
2023-01-13T06:10:18.128Z,100641.41
2023-01-13T06:13:20.757Z,100651.03
2023-01-13T06:16:23.534Z,100643.22
2023-01-13T06:19:26.183Z,100641.47
2023-01-13T06:22:32.916Z,100641.44
2023-01-13T06:25:46.659Z,100642.38
2023-01-13T06:28:50.152Z,100645.81
2023-01-13T06:31:52.932Z,100642.38
2023-01-13T06:35:00.992Z,100638.91
2023-01-13T06:38:09.424Z,100650.22
2023-01-13T06:41:12.542Z,100648.41
2023-01-13T06:44:15.246Z,100648.47
2023-01-13T06:47:18.740Z,100651.97
2023-01-13T06:50:22.433Z,100663.28
2023-01-13T06:53:25.524Z,100662.41
2023-01-13T06:56:28.155Z,100665.00
2023-01-13T06:59:31.123Z,100666.72
2023-01-13T07:02:33.923Z,100669.34
2023-01-13T07:05:37.253Z,100675.41
2023-01-13T07:08:39.800Z,100671.06
2023-01-13T07:11:42.813Z,100665.84
2023-01-13T07:15:04.093Z,100670.16
2023-01-13T07:18:08.084Z,100673.66
2023-01-13T07:21:24.252Z,100670.19
2023-01-13T07:24:27.227Z,100669.31
2023-01-13T07:27:29.810Z,100664.94
2023-01-13T07:30:38.957Z,100667.50
2023-01-13T07:33:41.647Z,100667.44
2023-01-13T07:40:16.985Z,100672.56
2023-01-13T07:43:32.611Z,100662.88
2023-01-13T07:54:05.571Z,100674.56
2023-01-13T07:57:08.632Z,100672.59
2023-01-13T08:00:13.000Z,100673.25
2023-01-13T08:03:15.983Z,100667.22
2023-01-13T08:06:18.889Z,100680.31
2023-01-13T08:09:21.708Z,100688.09
2023-01-13T08:12:54.202Z,100695.06
2023-01-13T08:16:08.847Z,100695.13
2023-01-13T08:19:11.352Z,100707.56
2023-01-13T08:22:14.262Z,100704.22
2023-01-13T08:25:17.470Z,100697.28
2023-01-13T08:28:20.821Z,100699.94
2023-01-13T08:31:23.466Z,100699.13
2023-01-13T08:34:26.509Z,100705.13
2023-01-13T08:37:29.035Z,100712.97
2023-01-13T08:40:33.063Z,100708.69
2023-01-13T08:43:35.655Z,100700.72
2023-01-13T08:46:38.522Z,100702.44
2023-01-13T08:49:41.191Z,100711.13
2023-01-13T08:52:45.499Z,100711.84
2023-01-13T08:55:48.208Z,100709.25
2023-01-13T08:58:51.346Z,100721.37
2023-01-13T09:01:53.988Z,100717.97
2023-01-13T09:04:57.025Z,100720.66
2023-01-13T09:07:59.734Z,100708.47
2023-01-13T09:11:22.871Z,100718.87
2023-01-13T09:14:27.589Z,100718.81
2023-01-13T09:17:30.520Z,100716.31
2023-01-13T09:20:35.422Z,100711.00
2023-01-13T09:23:38.302Z,100720.59
2023-01-13T09:26:41.009Z,100713.81
2023-01-13T09:29:44.377Z,100708.56
2023-01-13T09:32:47.293Z,100717.22
2023-01-13T09:35:50.205Z,100715.47
2023-01-13T09:38:52.871Z,100717.31
2023-01-13T09:42:20.506Z,100720.81
2023-01-13T09:45:30.213Z,100713.69
2023-01-13T09:48:52.079Z,100708.41
2023-01-13T09:52:02.946Z,100704.69
2023-01-13T09:55:11.653Z,100704.69
2023-01-13T09:58:18.510Z,100709.03
2023-01-13T10:01:32.214Z,100707.34
2023-01-13T10:04:35.072Z,100703.88
2023-01-13T10:07:43.566Z,100708.28
2023-01-13T10:10:50.289Z,100702.84
2023-01-13T10:13:58.185Z,100705.59
2023-01-13T10:17:19.129Z,100693.63
2023-01-13T10:20:24.815Z,100700.38
2023-01-13T10:23:51.420Z,100702.06
2023-01-13T10:27:14.461Z,100703.75
2023-01-13T10:30:17.740Z,100691.41
2023-01-13T10:33:27.709Z,100701.87
2023-01-13T10:36:30.877Z,100687.78
2023-01-13T10:40:01.421Z,100692.16
2023-01-13T10:43:08.430Z,100689.78
2023-01-13T10:46:13.119Z,100676.84
2023-01-13T10:49:27.247Z,100678.25
2023-01-13T10:52:34.175Z,100676.03
2023-01-13T10:55:38.151Z,100672.09
2023-01-13T10:58:40.789Z,100669.56
2023-01-13T11:02:01.250Z,100656.63
2023-01-13T11:05:25.225Z,100653.28
2023-01-13T11:08:31.479Z,100647.06
2023-01-13T11:11:43.979Z,100645.31
2023-01-13T11:14:47.822Z,100642.81
2023-01-13T11:18:01.462Z,100642.97
2023-01-13T11:21:09.911Z,100636.06
2023-01-13T11:24:20.725Z,100632.63
2023-01-13T11:27:26.858Z,100623.87
2023-01-13T11:30:43.080Z,100624.78
2023-01-13T11:33:57.109Z,100619.69
2023-01-13T11:37:03.462Z,100623.09
2023-01-13T11:40:23.955Z,100621.25
2023-01-13T11:43:33.819Z,100622.94
2023-01-13T11:46:37.219Z,100621.97
2023-01-13T11:49:40.010Z,100609.81
2023-01-13T11:53:09.712Z,100607.06
2023-01-13T11:56:29.185Z,100595.63
2023-01-13T11:59:57.044Z,100584.31
2023-01-13T12:03:38.196Z,100564.50
2023-01-13T12:06:41.969Z,100567.13
2023-01-13T12:09:52.101Z,100561.72
2023-01-13T12:13:35.770Z,100560.84
2023-01-13T12:16:48.637Z,100557.34
2023-01-13T12:19:51.658Z,100547.69
2023-01-13T12:22:58.699Z,100547.69
2023-01-13T12:26:07.230Z,100539.91
2023-01-13T12:29:14.865Z,100541.63
2023-01-13T12:32:24.390Z,100540.66
2023-01-13T12:36:03.165Z,100545.84
2023-01-13T12:39:43.348Z,100557.09
2023-01-13T12:43:17.539Z,100553.50
2023-01-13T12:46:23.251Z,100546.78
2023-01-13T12:49:33.884Z,100542.28
2023-01-13T12:52:44.789Z,100545.72
2023-01-13T12:55:52.389Z,100549.16
2023-01-13T12:59:21.456Z,100544.81
2023-01-13T13:02:30.163Z,100547.31
2023-01-13T13:05:57.046Z,100534.97
2023-01-13T13:09:14.224Z,100549.03
2023-01-13T13:12:48.814Z,100552.59
2023-01-13T13:15:52.162Z,100558.81
2023-01-13T13:19:22.676Z,100561.19
2023-01-13T13:22:28.132Z,100555.94
2023-01-13T13:25:31.151Z,100558.28
2023-01-13T13:28:38.871Z,100556.66
2023-01-13T13:31:45.079Z,100565.66
2023-01-13T13:34:53.934Z,100562.06
2023-01-13T13:38:39.971Z,100555.09
2023-01-13T13:42:05.629Z,100543.72
2023-01-13T13:45:43.005Z,100551.53
2023-01-13T13:48:53.906Z,100545.34
2023-01-13T13:52:10.994Z,100562.81
2023-01-13T13:55:19.409Z,100565.25
2023-01-13T13:58:26.289Z,100576.41
2023-01-13T14:01:36.765Z,100579.97
2023-01-13T14:04:41.612Z,100583.38
2023-01-13T14:07:50.359Z,100580.56
2023-01-13T14:10:54.140Z,100575.63
2023-01-13T14:14:05.650Z,100582.38
2023-01-13T14:17:19.011Z,100583.31
2023-01-13T14:20:21.653Z,100583.31
2023-01-13T14:23:33.653Z,100570.38
2023-01-13T14:26:36.375Z,100562.53
2023-01-13T14:29:39.642Z,100566.88
2023-01-13T14:32:42.262Z,100564.03
2023-01-13T14:36:22.807Z,100565.66
2023-01-13T14:39:34.609Z,100562.09
2023-01-13T14:42:37.537Z,100570.75
2023-01-13T14:45:54.586Z,100562.87
2023-01-13T14:49:01.522Z,100578.66
2023-01-13T14:52:17.963Z,100583.94
2023-01-13T14:55:28.876Z,100586.44
2023-01-13T14:58:31.443Z,100589.09
2023-01-13T15:01:36.597Z,100579.41
2023-01-13T15:04:39.280Z,100575.84
2023-01-13T15:07:51.260Z,100570.66
2023-01-13T15:10:59.993Z,100567.16
2023-01-13T15:14:09.421Z,100577.56
2023-01-13T15:17:17.415Z,100561.84
2023-01-13T15:20:25.017Z,100567.19
2023-01-13T15:23:27.623Z,100568.09
2023-01-13T15:26:33.166Z,100576.06
2023-01-13T15:29:35.731Z,100573.38
2023-01-13T15:32:38.760Z,100570.00
2023-01-13T15:35:44.927Z,100567.38
2023-01-13T15:38:47.968Z,100565.69
2023-01-13T15:42:09.145Z,100572.66
2023-01-13T15:45:32.083Z,100576.97
2023-01-13T15:48:35.753Z,100573.53
2023-01-13T15:51:40.224Z,100582.31
2023-01-13T15:54:42.917Z,100585.03
2023-01-13T15:57:49.923Z,100590.16
2023-01-13T16:00:53.210Z,100587.56
2023-01-13T16:03:56.622Z,100580.56
2023-01-13T16:06:59.528Z,100584.03
2023-01-13T16:10:05.127Z,100585.66
2023-01-13T16:13:07.966Z,100590.81
2023-01-13T16:16:29.929Z,100585.59
2023-01-13T16:19:32.476Z,100592.56
2023-01-13T16:22:35.278Z,100582.06
2023-01-13T16:25:38.311Z,100588.19
2023-01-13T16:28:41.319Z,100594.28
2023-01-13T16:31:44.074Z,100594.28
